sensor_id;sensor_type;location;lat;lon;timestamp;pressure;altitude;pressure_sealevel;temperature;humidity
62789;BME280;66401;42.016;21.454;2023-04-06T00:01:34;98230.25;;;2.29;66.39
62789;BME280;66401;42.016;21.454;2023-04-06T00:03:59;98230.50;;;2.36;65.76
62789;BME280;66401;42.016;21.454;2023-04-06T00:06:25;98223.44;;;2.38;65.82
62789;BME280;66401;42.016;21.454;2023-04-06T00:08:51;98217.09;;;2.42;65.70
62789;BME280;66401;42.016;21.454;2023-04-06T00:11:17;98213.34;;;2.64;66.17
62789;BME280;66401;42.016;21.454;2023-04-06T00:13:42;98207.25;;;2.28;66.29
62789;BME280;66401;42.016;21.454;2023-04-06T00:16:08;98217.94;;;2.33;65.93
62789;BME280;66401;42.016;21.454;2023-04-06T00:18:34;98205.00;;;2.52;65.51
62789;BME280;66401;42.016;21.454;2023-04-06T00:20:59;98198.19;;;2.34;65.60
62789;BME280;66401;42.016;21.454;2023-04-06T00:23:25;98211.13;;;2.42;64.30
62789;BME280;66401;42.016;21.454;2023-04-06T00:25:50;98206.69;;;2.34;65.59
62789;BME280;66401;42.016;21.454;2023-04-06T00:28:16;98203.19;;;2.35;66.20
62789;BME280;66401;42.016;21.454;2023-04-06T00:30:42;98205.84;;;2.43;65.83
62789;BME280;66401;42.016;21.454;2023-04-06T00:33:08;98212.66;;;2.35;65.96
62789;BME280;66401;42.016;21.454;2023-04-06T00:35:34;98194.50;;;2.36;64.90
62789;BME280;66401;42.016;21.454;2023-04-06T00:37:59;98209.41;;;2.33;65.24
62789;BME280;66401;42.016;21.454;2023-04-06T00:40:25;98195.66;;;2.24;65.66
62789;BME280;66401;42.016;21.454;2023-04-06T00:42:54;98194.97;;;2.22;65.30
62789;BME280;66401;42.016;21.454;2023-04-06T00:45:19;98199.00;;;2.34;65.55
62789;BME280;66401;42.016;21.454;2023-04-06T00:47:45;98207.22;;;2.38;65.16
62789;BME280;66401;42.016;21.454;2023-04-06T00:50:10;98193.16;;;2.42;65.41
62789;BME280;66401;42.016;21.454;2023-04-06T00:52:36;98193.25;;;2.40;65.83
62789;BME280;66401;42.016;21.454;2023-04-06T00:55:03;98178.78;;;2.39;64.53
62789;BME280;66401;42.016;21.454;2023-04-06T00:57:28;98190.63;;;2.32;65.89
62789;BME280;66401;42.016;21.454;2023-04-06T00:59:54;98171.59;;;2.15;65.37
62789;BME280;66401;42.016;21.454;2023-04-06T01:02:20;98189.38;;;2.36;65.02
62789;BME280;66401;42.016;21.454;2023-04-06T01:04:45;98186.56;;;2.29;63.85
62789;BME280;66401;42.016;21.454;2023-04-06T01:07:11;98184.53;;;2.33;64.90
62789;BME280;66401;42.016;21.454;2023-04-06T01:09:36;98185.00;;;2.46;64.56
62789;BME280;66401;42.016;21.454;2023-04-06T01:12:02;98181.66;;;2.36;64.25
62789;BME280;66401;42.016;21.454;2023-04-06T01:14:28;98180.75;;;2.27;64.44
62789;BME280;66401;42.016;21.454;2023-04-06T01:16:54;98163.38;;;2.39;63.53
62789;BME280;66401;42.016;21.454;2023-04-06T01:19:21;98158.91;;;2.14;64.69
62789;BME280;66401;42.016;21.454;2023-04-06T01:21:47;98176.81;;;2.33;64.87
62789;BME280;66401;42.016;21.454;2023-04-06T01:24:14;98166.69;;;2.22;63.98
62789;BME280;66401;42.016;21.454;2023-04-06T01:26:40;98131.94;;;1.90;65.57
62789;BME280;66401;42.016;21.454;2023-04-06T01:29:05;98164.53;;;2.27;64.95
62789;BME280;66401;42.016;21.454;2023-04-06T01:31:31;98166.16;;;2.18;65.06
62789;BME280;66401;42.016;21.454;2023-04-06T01:33:56;98174.84;;;2.17;65.49
62789;BME280;66401;42.016;21.454;2023-04-06T01:36:22;98123.53;;;1.98;64.50
62789;BME280;66401;42.016;21.454;2023-04-06T01:38:47;98162.50;;;2.21;64.29
62789;BME280;66401;42.016;21.454;2023-04-06T01:41:13;98156.41;;;2.22;64.17
62789;BME280;66401;42.016;21.454;2023-04-06T01:43:38;98158.88;;;2.23;64.64
62789;BME280;66401;42.016;21.454;2023-04-06T01:46:04;98167.22;;;2.25;63.65
62789;BME280;66401;42.016;21.454;2023-04-06T01:48:31;98151.28;;;2.22;63.30
62789;BME280;66401;42.016;21.454;2023-04-06T01:50:57;98152.38;;;2.19;63.66
62789;BME280;66401;42.016;21.454;2023-04-06T01:53:22;98151.03;;;2.15;64.31
62789;BME280;66401;42.016;21.454;2023-04-06T01:55:48;98150.72;;;2.28;64.17
62789;BME280;66401;42.016;21.454;2023-04-06T01:58:13;98144.25;;;2.24;64.14
62789;BME280;66401;42.016;21.454;2023-04-06T02:00:40;98139.66;;;2.18;64.39
62789;BME280;66401;42.016;21.454;2023-04-06T02:03:05;98146.44;;;2.19;64.15
62789;BME280;66401;42.016;21.454;2023-04-06T02:05:32;98142.53;;;2.42;64.49
62789;BME280;66401;42.016;21.454;2023-04-06T02:08:07;98137.69;;;2.39;63.09
62789;BME280;66401;42.016;21.454;2023-04-06T02:10:33;98143.00;;;2.55;63.44
62789;BME280;66401;42.016;21.454;2023-04-06T02:12:59;98124.97;;;2.38;63.82
62789;BME280;66401;42.016;21.454;2023-04-06T02:15:25;98138.81;;;2.27;64.26
62789;BME280;66401;42.016;21.454;2023-04-06T02:17:51;98127.22;;;2.23;63.04
62789;BME280;66401;42.016;21.454;2023-04-06T02:20:17;98137.72;;;2.29;63.45
62789;BME280;66401;42.016;21.454;2023-04-06T02:22:45;98128.53;;;2.27;64.02
62789;BME280;66401;42.016;21.454;2023-04-06T02:25:11;98137.00;;;2.37;63.57
62789;BME280;66401;42.016;21.454;2023-04-06T02:27:37;98131.69;;;2.48;62.47
62789;BME280;66401;42.016;21.454;2023-04-06T02:30:03;98132.63;;;2.47;62.50
62789;BME280;66401;42.016;21.454;2023-04-06T02:32:29;98135.72;;;2.51;63.12
62789;BME280;66401;42.016;21.454;2023-04-06T02:34:54;98130.56;;;2.51;61.22
62789;BME280;66401;42.016;21.454;2023-04-06T02:37:20;98128.38;;;2.56;62.72
62789;BME280;66401;42.016;21.454;2023-04-06T02:39:46;98133.28;;;2.49;62.33
62789;BME280;66401;42.016;21.454;2023-04-06T02:42:12;98112.06;;;2.47;62.76
62789;BME280;66401;42.016;21.454;2023-04-06T02:44:37;98110.09;;;2.32;61.87
62789;BME280;66401;42.016;21.454;2023-04-06T02:47:03;98124.34;;;2.53;61.70
62789;BME280;66401;42.016;21.454;2023-04-06T02:49:28;98122.16;;;2.31;62.50
62789;BME280;66401;42.016;21.454;2023-04-06T02:51:54;98114.53;;;2.39;62.26
62789;BME280;66401;42.016;21.454;2023-04-06T02:54:19;98124.34;;;2.26;64.37
62789;BME280;66401;42.016;21.454;2023-04-06T02:56:45;98123.31;;;2.46;63.47
62789;BME280;66401;42.016;21.454;2023-04-06T02:59:10;98123.75;;;2.59;63.02
62789;BME280;66401;42.016;21.454;2023-04-06T03:01:36;98128.84;;;2.51;63.70
62789;BME280;66401;42.016;21.454;2023-04-06T03:04:02;98126.81;;;2.73;61.79
62789;BME280;66401;42.016;21.454;2023-04-06T03:06:27;98128.16;;;2.49;62.05
62789;BME280;66401;42.016;21.454;2023-04-06T03:08:53;98107.13;;;2.36;62.64
62789;BME280;66401;42.016;21.454;2023-04-06T03:11:18;98120.94;;;2.35;64.33
62789;BME280;66401;42.016;21.454;2023-04-06T03:13:44;98124.50;;;2.70;63.98
62789;BME280;66401;42.016;21.454;2023-04-06T03:16:10;98116.75;;;2.34;63.37
62789;BME280;66401;42.016;21.454;2023-04-06T03:18:36;98125.09;;;2.64;62.93
62789;BME280;66401;42.016;21.454;2023-04-06T03:21:01;98120.03;;;2.54;63.84
62789;BME280;66401;42.016;21.454;2023-04-06T03:23:27;98129.00;;;2.40;64.34
62789;BME280;66401;42.016;21.454;2023-04-06T03:25:52;98126.13;;;2.53;64.49
62789;BME280;66401;42.016;21.454;2023-04-06T03:28:18;98131.00;;;2.46;64.03
62789;BME280;66401;42.016;21.454;2023-04-06T03:30:43;98121.38;;;2.48;64.28
62789;BME280;66401;42.016;21.454;2023-04-06T03:33:09;98126.44;;;2.40;64.37
62789;BME280;66401;42.016;21.454;2023-04-06T03:35:34;98126.53;;;2.48;63.56
62789;BME280;66401;42.016;21.454;2023-04-06T03:38:02;98125.78;;;2.38;64.06
62789;BME280;66401;42.016;21.454;2023-04-06T03:40:27;98122.34;;;2.20;64.51
62789;BME280;66401;42.016;21.454;2023-04-06T03:42:53;98126.72;;;2.10;65.27
62789;BME280;66401;42.016;21.454;2023-04-06T03:45:18;98126.72;;;2.10;65.47
62789;BME280;66401;42.016;21.454;2023-04-06T03:47:44;98121.34;;;2.03;64.51
62789;BME280;66401;42.016;21.454;2023-04-06T03:50:10;98127.78;;;2.17;63.82
62789;BME280;66401;42.016;21.454;2023-04-06T03:52:35;98115.81;;;1.98;65.36
62789;BME280;66401;42.016;21.454;2023-04-06T03:55:01;98131.66;;;1.93;65.13
62789;BME280;66401;42.016;21.454;2023-04-06T03:57:27;98128.91;;;2.05;65.37
62789;BME280;66401;42.016;21.454;2023-04-06T03:59:52;98115.25;;;2.04;64.86
62789;BME280;66401;42.016;21.454;2023-04-06T04:02:18;98123.84;;;2.22;64.45
62789;BME280;66401;42.016;21.454;2023-04-06T04:04:43;98128.19;;;2.40;63.53
62789;BME280;66401;42.016;21.454;2023-04-06T04:07:09;98125.69;;;2.30;64.04
62789;BME280;66401;42.016;21.454;2023-04-06T04:09:34;98129.03;;;2.13;64.08
62789;BME280;66401;42.016;21.454;2023-04-06T04:12:00;98130.78;;;2.03;64.79
62789;BME280;66401;42.016;21.454;2023-04-06T04:14:26;98123.78;;;2.05;65.10
62789;BME280;66401;42.016;21.454;2023-04-06T04:16:52;98134.59;;;2.36;65.57
62789;BME280;66401;42.016;21.454;2023-04-06T04:19:17;98138.22;;;2.43;63.02
62789;BME280;66401;42.016;21.454;2023-04-06T04:21:44;98131.91;;;2.55;64.19
62789;BME280;66401;42.016;21.454;2023-04-06T04:24:10;98126.94;;;2.26;62.36
62789;BME280;66401;42.016;21.454;2023-04-06T04:26:36;98127.44;;;2.29;63.69
62789;BME280;66401;42.016;21.454;2023-04-06T04:29:01;98146.38;;;2.28;63.78
62789;BME280;66401;42.016;21.454;2023-04-06T04:31:27;98138.81;;;2.27;63.21
62789;BME280;66401;42.016;21.454;2023-04-06T04:33:52;98142.16;;;2.37;64.33
62789;BME280;66401;42.016;21.454;2023-04-06T04:36:18;98147.09;;;2.48;64.41
62789;BME280;66401;42.016;21.454;2023-04-06T04:38:43;98151.31;;;2.67;62.73
62789;BME280;66401;42.016;21.454;2023-04-06T04:41:09;98156.06;;;2.90;62.77
62789;BME280;66401;42.016;21.454;2023-04-06T04:43:34;98144.63;;;3.02;60.72
62789;BME280;66401;42.016;21.454;2023-04-06T04:46:00;98153.63;;;3.06;60.48
62789;BME280;66401;42.016;21.454;2023-04-06T04:48:26;98156.44;;;3.12;61.69
62789;BME280;66401;42.016;21.454;2023-04-06T04:50:51;98159.59;;;3.24;59.49
62789;BME280;66401;42.016;21.454;2023-04-06T04:53:17;98154.59;;;3.05;61.01
62789;BME280;66401;42.016;21.454;2023-04-06T04:55:42;98151.38;;;3.03;60.32
62789;BME280;66401;42.016;21.454;2023-04-06T04:58:08;98143.19;;;3.07;60.14
62789;BME280;66401;42.016;21.454;2023-04-06T05:00:36;98152.69;;;3.25;59.90
62789;BME280;66401;42.016;21.454;2023-04-06T05:03:03;98156.88;;;3.26;60.07
62789;BME280;66401;42.016;21.454;2023-04-06T05:05:30;98151.72;;;3.26;59.80
62789;BME280;66401;42.016;21.454;2023-04-06T05:07:56;98157.91;;;3.77;60.01
62789;BME280;66401;42.016;21.454;2023-04-06T05:10:22;98152.53;;;3.44;60.92
62789;BME280;66401;42.016;21.454;2023-04-06T05:12:47;98149.69;;;3.55;61.39
62789;BME280;66401;42.016;21.454;2023-04-06T05:15:13;98159.66;;;4.02;60.51
62789;BME280;66401;42.016;21.454;2023-04-06T05:17:38;98161.69;;;4.16;59.19
62789;BME280;66401;42.016;21.454;2023-04-06T05:20:05;98161.75;;;4.32;58.85
62789;BME280;66401;42.016;21.454;2023-04-06T05:22:31;98166.63;;;4.44;58.88
62789;BME280;66401;42.016;21.454;2023-04-06T05:24:56;98165.28;;;4.31;59.48
62789;BME280;66401;42.016;21.454;2023-04-06T05:27:22;98172.28;;;3.61;59.85
62789;BME280;66401;42.016;21.454;2023-04-06T05:29:48;98166.84;;;3.64;60.53
62789;BME280;66401;42.016;21.454;2023-04-06T05:32:14;98170.06;;;3.66;59.18
62789;BME280;66401;42.016;21.454;2023-04-06T05:34:39;98170.44;;;3.71;58.04
62789;BME280;66401;42.016;21.454;2023-04-06T05:37:05;98164.38;;;3.37;59.45
62789;BME280;66401;42.016;21.454;2023-04-06T05:39:30;98118.81;;;3.55;57.59
62789;BME280;66401;42.016;21.454;2023-04-06T05:41:56;98157.34;;;3.91;57.56
62789;BME280;66401;42.016;21.454;2023-04-06T05:44:22;98155.41;;;4.61;56.49
62789;BME280;66401;42.016;21.454;2023-04-06T05:46:47;98153.28;;;5.15;55.51
62789;BME280;66401;42.016;21.454;2023-04-06T05:49:13;98152.44;;;4.98;55.86
62789;BME280;66401;42.016;21.454;2023-04-06T05:51:38;98154.56;;;5.27;55.85
62789;BME280;66401;42.016;21.454;2023-04-06T05:54:04;98132.91;;;5.77;54.67
62789;BME280;66401;42.016;21.454;2023-04-06T05:56:29;98152.19;;;6.38;53.30
62789;BME280;66401;42.016;21.454;2023-04-06T05:58:55;98146.88;;;6.63;53.04
62789;BME280;66401;42.016;21.454;2023-04-06T06:01:20;98141.81;;;7.23;50.78
62789;BME280;66401;42.016;21.454;2023-04-06T06:03:46;98151.34;;;5.90;52.34
62789;BME280;66401;42.016;21.454;2023-04-06T06:06:12;98146.16;;;5.74;53.67
62789;BME280;66401;42.016;21.454;2023-04-06T06:08:37;98150.06;;;5.54;54.50
62789;BME280;66401;42.016;21.454;2023-04-06T06:11:03;98142.91;;;5.88;55.08
62789;BME280;66401;42.016;21.454;2023-04-06T06:13:28;98142.88;;;6.13;55.00
62789;BME280;66401;42.016;21.454;2023-04-06T06:15:54;98143.41;;;5.75;55.70
62789;BME280;66401;42.016;21.454;2023-04-06T06:18:20;98142.72;;;6.06;55.79
62789;BME280;66401;42.016;21.454;2023-04-06T06:20:45;98147.47;;;5.54;56.46
62789;BME280;66401;42.016;21.454;2023-04-06T06:23:11;98126.72;;;4.56;57.86
62789;BME280;66401;42.016;21.454;2023-04-06T06:25:36;98137.44;;;5.02;57.91
62789;BME280;66401;42.016;21.454;2023-04-06T06:28:02;98143.28;;;5.12;58.00
62789;BME280;66401;42.016;21.454;2023-04-06T06:30:27;98141.97;;;5.65;57.65
62789;BME280;66401;42.016;21.454;2023-04-06T06:32:53;98144.66;;;6.12;56.48
62789;BME280;66401;42.016;21.454;2023-04-06T06:35:18;98147.16;;;5.65;56.42
62789;BME280;66401;42.016;21.454;2023-04-06T06:37:44;98149.72;;;5.81;56.28
62789;BME280;66401;42.016;21.454;2023-04-06T06:40:10;98144.03;;;6.10;55.76
62789;BME280;66401;42.016;21.454;2023-04-06T06:42:38;98144.25;;;6.40;56.88
62789;BME280;66401;42.016;21.454;2023-04-06T06:45:04;98156.00;;;6.50;54.50
62789;BME280;66401;42.016;21.454;2023-04-06T06:47:30;98150.38;;;5.99;55.51
62789;BME280;66401;42.016;21.454;2023-04-06T06:49:56;98149.03;;;6.03;55.65
62789;BME280;66401;42.016;21.454;2023-04-06T06:52:21;98144.84;;;6.11;55.58
62789;BME280;66401;42.016;21.454;2023-04-06T06:54:49;98138.50;;;6.21;55.29
62789;BME280;66401;42.016;21.454;2023-04-06T06:57:14;98147.22;;;6.28;54.72
62789;BME280;66401;42.016;21.454;2023-04-06T06:59:40;98151.03;;;5.12;55.93
62789;BME280;66401;42.016;21.454;2023-04-06T07:02:05;98154.09;;;5.24;57.43
62789;BME280;66401;42.016;21.454;2023-04-06T07:04:31;98146.50;;;5.46;55.94
62789;BME280;66401;42.016;21.454;2023-04-06T07:06:57;98151.38;;;4.58;59.19
62789;BME280;66401;42.016;21.454;2023-04-06T07:09:22;98147.34;;;4.56;56.57
62789;BME280;66401;42.016;21.454;2023-04-06T07:11:48;98159.06;;;5.09;56.42
62789;BME280;66401;42.016;21.454;2023-04-06T07:14:15;98162.19;;;4.20;58.79
62789;BME280;66401;42.016;21.454;2023-04-06T07:16:41;98161.53;;;3.92;58.72
62789;BME280;66401;42.016;21.454;2023-04-06T07:19:06;98157.25;;;4.00;59.20
62789;BME280;66401;42.016;21.454;2023-04-06T07:21:32;98157.13;;;4.10;58.81
62789;BME280;66401;42.016;21.454;2023-04-06T07:23:57;98155.53;;;4.09;57.79
62789;BME280;66401;42.016;21.454;2023-04-06T07:26:23;98154.25;;;4.13;58.50
62789;BME280;66401;42.016;21.454;2023-04-06T07:28:49;98147.94;;;4.08;57.93
62789;BME280;66401;42.016;21.454;2023-04-06T07:31:14;98150.75;;;4.22;58.27
62789;BME280;66401;42.016;21.454;2023-04-06T07:33:40;98144.81;;;4.80;55.69
62789;BME280;66401;42.016;21.454;2023-04-06T07:36:05;98146.84;;;5.27;55.60
62789;BME280;66401;42.016;21.454;2023-04-06T07:38:31;98146.34;;;5.48;55.83
62789;BME280;66401;42.016;21.454;2023-04-06T07:40:56;98144.19;;;4.78;54.81
62789;BME280;66401;42.016;21.454;2023-04-06T07:43:22;98147.22;;;4.66;56.33
62789;BME280;66401;42.016;21.454;2023-04-06T07:45:47;98136.31;;;5.21;54.15
62789;BME280;66401;42.016;21.454;2023-04-06T07:48:13;98144.91;;;5.62;54.39
62789;BME280;66401;42.016;21.454;2023-04-06T07:50:39;98139.03;;;5.84;51.25
62789;BME280;66401;42.016;21.454;2023-04-06T07:53:05;98127.03;;;6.08;51.47
62789;BME280;66401;42.016;21.454;2023-04-06T07:55:30;98141.50;;;6.33;51.64
62789;BME280;66401;42.016;21.454;2023-04-06T07:57:56;98142.22;;;6.58;51.01
62789;BME280;66401;42.016;21.454;2023-04-06T08:00:21;98133.09;;;6.70;51.73
62789;BME280;66401;42.016;21.454;2023-04-06T08:02:47;98137.88;;;6.58;50.93
62789;BME280;66401;42.016;21.454;2023-04-06T08:05:12;98145.19;;;5.75;49.76
62789;BME280;66401;42.016;21.454;2023-04-06T08:07:38;98135.38;;;5.13;52.00
62789;BME280;66401;42.016;21.454;2023-04-06T08:10:04;98125.50;;;5.50;50.41
62789;BME280;66401;42.016;21.454;2023-04-06T08:12:29;98135.16;;;6.05;49.45
62789;BME280;66401;42.016;21.454;2023-04-06T08:14:55;98128.50;;;6.18;50.65
62789;BME280;66401;42.016;21.454;2023-04-06T08:17:22;98133.69;;;6.49;48.63
62789;BME280;66401;42.016;21.454;2023-04-06T08:19:47;98137.94;;;6.73;47.78
62789;BME280;66401;42.016;21.454;2023-04-06T08:22:13;98130.00;;;6.75;49.24
62789;BME280;66401;42.016;21.454;2023-04-06T08:24:38;98134.44;;;6.89;47.30
62789;BME280;66401;42.016;21.454;2023-04-06T08:27:04;98131.22;;;6.87;47.68
62789;BME280;66401;42.016;21.454;2023-04-06T08:29:29;98125.47;;;6.77;48.39
62789;BME280;66401;42.016;21.454;2023-04-06T08:31:55;98129.06;;;5.65;50.69
62789;BME280;66401;42.016;21.454;2023-04-06T08:34:21;98106.78;;;5.64;51.69
62789;BME280;66401;42.016;21.454;2023-04-06T08:36:48;98121.19;;;5.50;49.89
62789;BME280;66401;42.016;21.454;2023-04-06T08:39:13;98125.03;;;5.46;49.88
62789;BME280;66401;42.016;21.454;2023-04-06T08:41:41;98124.69;;;5.57;52.55
62789;BME280;66401;42.016;21.454;2023-04-06T08:44:08;98135.03;;;5.57;51.17
62789;BME280;66401;42.016;21.454;2023-04-06T08:46:34;98134.53;;;5.78;51.83
62789;BME280;66401;42.016;21.454;2023-04-06T08:49:01;98127.78;;;5.61;51.19
62789;BME280;66401;42.016;21.454;2023-04-06T08:51:28;98127.91;;;5.59;50.61
62789;BME280;66401;42.016;21.454;2023-04-06T08:53:56;98120.16;;;5.92;50.24
62789;BME280;66401;42.016;21.454;2023-04-06T08:56:24;98121.47;;;6.35;48.61
62789;BME280;66401;42.016;21.454;2023-04-06T08:58:50;98127.41;;;5.96;49.42
62789;BME280;66401;42.016;21.454;2023-04-06T09:01:20;98120.94;;;6.00;50.37
62789;BME280;66401;42.016;21.454;2023-04-06T09:03:46;98109.91;;;6.15;50.65
62789;BME280;66401;42.016;21.454;2023-04-06T09:06:13;98118.50;;;6.77;50.56
62789;BME280;66401;42.016;21.454;2023-04-06T09:08:40;98112.59;;;7.14;49.40
62789;BME280;66401;42.016;21.454;2023-04-06T09:11:06;98112.94;;;7.11;47.94
62789;BME280;66401;42.016;21.454;2023-04-06T09:13:31;98107.00;;;7.26;48.33
62789;BME280;66401;42.016;21.454;2023-04-06T09:16:09;98106.13;;;7.33;47.61
62789;BME280;66401;42.016;21.454;2023-04-06T09:18:34;98104.53;;;7.85;47.20
62789;BME280;66401;42.016;21.454;2023-04-06T09:21:05;98098.13;;;7.58;47.00
62789;BME280;66401;42.016;21.454;2023-04-06T09:23:31;98105.31;;;8.15;47.36
62789;BME280;66401;42.016;21.454;2023-04-06T09:26:07;98103.44;;;8.23;45.15
62789;BME280;66401;42.016;21.454;2023-04-06T09:28:49;98094.03;;;8.37;46.36
62789;BME280;66401;42.016;21.454;2023-04-06T09:31:16;98088.88;;;8.73;44.08
62789;BME280;66401;42.016;21.454;2023-04-06T09:33:46;98085.34;;;8.81;44.83
62789;BME280;66401;42.016;21.454;2023-04-06T09:36:12;98097.13;;;8.62;43.78
62789;BME280;66401;42.016;21.454;2023-04-06T09:38:51;98096.63;;;8.37;44.66
62789;BME280;66401;42.016;21.454;2023-04-06T09:41:30;98097.22;;;8.69;44.39
62789;BME280;66401;42.016;21.454;2023-04-06T09:44:07;98098.59;;;8.50;45.07
62789;BME280;66401;42.016;21.454;2023-04-06T09:46:40;98093.94;;;8.60;45.28
62789;BME280;66401;42.016;21.454;2023-04-06T09:49:07;98080.72;;;8.25;45.47
62789;BME280;66401;42.016;21.454;2023-04-06T09:51:38;98083.06;;;8.35;43.55
62789;BME280;66401;42.016;21.454;2023-04-06T09:54:05;98077.31;;;6.91;47.79
62789;BME280;66401;42.016;21.454;2023-04-06T09:56:39;98090.72;;;7.69;48.64
62789;BME280;66401;42.016;21.454;2023-04-06T09:59:13;98088.59;;;8.17;47.87
62789;BME280;66401;42.016;21.454;2023-04-06T10:01:39;98067.91;;;8.09;47.39
62789;BME280;66401;42.016;21.454;2023-04-06T10:04:32;98083.16;;;8.12;46.73
62789;BME280;66401;42.016;21.454;2023-04-06T10:07:02;98087.34;;;7.84;45.71
62789;BME280;66401;42.016;21.454;2023-04-06T10:09:29;98071.94;;;8.26;44.83
62789;BME280;66401;42.016;21.454;2023-04-06T10:12:03;98074.63;;;7.59;45.46
62789;BME280;66401;42.016;21.454;2023-04-06T10:14:29;98082.19;;;6.63;47.09
62789;BME280;66401;42.016;21.454;2023-04-06T10:16:56;98066.31;;;7.11;46.73
62789;BME280;66401;42.016;21.454;2023-04-06T10:19:27;98069.00;;;7.56;46.22
62789;BME280;66401;42.016;21.454;2023-04-06T10:21:55;98046.47;;;8.00;46.20
62789;BME280;66401;42.016;21.454;2023-04-06T10:24:24;98055.16;;;7.93;45.92
62789;BME280;66401;42.016;21.454;2023-04-06T10:27:02;98066.66;;;8.49;46.98
62789;BME280;66401;42.016;21.454;2023-04-06T10:29:41;98065.16;;;8.98;43.09
62789;BME280;66401;42.016;21.454;2023-04-06T10:32:08;98060.63;;;9.34;43.51
62789;BME280;66401;42.016;21.454;2023-04-06T10:34:36;98062.00;;;9.58;43.04
62789;BME280;66401;42.016;21.454;2023-04-06T10:37:15;98064.41;;;9.60;43.15
62789;BME280;66401;42.016;21.454;2023-04-06T10:39:53;98063.91;;;10.12;42.76
62789;BME280;66401;42.016;21.454;2023-04-06T10:42:36;98055.91;;;10.14;40.24
62789;BME280;66401;42.016;21.454;2023-04-06T10:45:06;98057.69;;;8.95;44.85
62789;BME280;66401;42.016;21.454;2023-04-06T10:47:55;98050.13;;;9.21;43.81
62789;BME280;66401;42.016;21.454;2023-04-06T10:50:21;98054.41;;;9.57;43.72
62789;BME280;66401;42.016;21.454;2023-04-06T10:52:58;98057.91;;;9.42;45.26
62789;BME280;66401;42.016;21.454;2023-04-06T10:55:25;98049.47;;;9.68;43.48
62789;BME280;66401;42.016;21.454;2023-04-06T10:57:52;98041.53;;;9.49;44.14
62789;BME280;66401;42.016;21.454;2023-04-06T11:00:17;98039.56;;;9.51;45.00
62789;BME280;66401;42.016;21.454;2023-04-06T11:02:44;98039.94;;;9.48;44.83
62789;BME280;66401;42.016;21.454;2023-04-06T11:05:11;98030.06;;;9.36;44.49
62789;BME280;66401;42.016;21.454;2023-04-06T11:07:37;98030.81;;;9.65;43.71
62789;BME280;66401;42.016;21.454;2023-04-06T11:10:02;98036.69;;;9.39;42.63
62789;BME280;66401;42.016;21.454;2023-04-06T11:12:29;98038.06;;;7.98;44.75
62789;BME280;66401;42.016;21.454;2023-04-06T11:14:58;98024.00;;;8.22;45.99
62789;BME280;66401;42.016;21.454;2023-04-06T11:17:35;98038.72;;;8.51;45.32
62789;BME280;66401;42.016;21.454;2023-04-06T11:20:02;98021.03;;;8.83;45.71
62789;BME280;66401;42.016;21.454;2023-04-06T11:22:28;98026.72;;;8.93;44.75
62789;BME280;66401;42.016;21.454;2023-04-06T11:25:08;98026.59;;;8.58;44.18
62789;BME280;66401;42.016;21.454;2023-04-06T11:27:34;98028.16;;;8.02;44.21
62789;BME280;66401;42.016;21.454;2023-04-06T11:30:01;98028.44;;;7.63;45.09
62789;BME280;66401;42.016;21.454;2023-04-06T11:32:27;98018.88;;;7.34;45.92
62789;BME280;66401;42.016;21.454;2023-04-06T11:34:53;98023.31;;;7.69;45.41
62789;BME280;66401;42.016;21.454;2023-04-06T11:37:18;98024.41;;;7.60;45.53
62789;BME280;66401;42.016;21.454;2023-04-06T11:39:51;98019.81;;;8.07;47.06
62789;BME280;66401;42.016;21.454;2023-04-06T11:42:24;98022.59;;;8.05;45.26
62789;BME280;66401;42.016;21.454;2023-04-06T11:45:00;98023.00;;;7.72;45.77
62789;BME280;66401;42.016;21.454;2023-04-06T11:49:55;98012.03;;;7.33;45.69
62789;BME280;66401;42.016;21.454;2023-04-06T11:52:26;98006.69;;;7.93;44.95
62789;BME280;66401;42.016;21.454;2023-04-06T11:54:53;98011.47;;;8.41;45.22
62789;BME280;66401;42.016;21.454;2023-04-06T11:57:20;98003.00;;;8.75;44.40
62789;BME280;66401;42.016;21.454;2023-04-06T11:59:46;98007.16;;;8.69;43.06
62789;BME280;66401;42.016;21.454;2023-04-06T12:02:12;98006.25;;;7.60;44.90
62789;BME280;66401;42.016;21.454;2023-04-06T12:04:38;98008.22;;;7.88;45.09
62789;BME280;66401;42.016;21.454;2023-04-06T12:07:04;98005.44;;;8.04;45.02
62789;BME280;66401;42.016;21.454;2023-04-06T12:09:30;98005.53;;;8.89;43.64
62789;BME280;66401;42.016;21.454;2023-04-06T12:11:56;97994.06;;;9.74;42.90
62789;BME280;66401;42.016;21.454;2023-04-06T12:14:22;98004.59;;;9.94;41.20
62789;BME280;66401;42.016;21.454;2023-04-06T12:16:50;97982.41;;;9.64;40.61
62789;BME280;66401;42.016;21.454;2023-04-06T12:19:16;97982.16;;;8.68;42.64
62789;BME280;66401;42.016;21.454;2023-04-06T12:21:41;97992.91;;;9.42;40.60
62789;BME280;66401;42.016;21.454;2023-04-06T12:24:07;97989.94;;;8.89;41.99
62789;BME280;66401;42.016;21.454;2023-04-06T12:26:33;97979.31;;;8.63;42.70
62789;BME280;66401;42.016;21.454;2023-04-06T12:29:00;97991.69;;;8.82;42.92
62789;BME280;66401;42.016;21.454;2023-04-06T12:31:36;97973.03;;;9.28;41.65
62789;BME280;66401;42.016;21.454;2023-04-06T12:34:02;97978.00;;;9.58;40.94
62789;BME280;66401;42.016;21.454;2023-04-06T12:36:28;97981.75;;;9.90;41.55
62789;BME280;66401;42.016;21.454;2023-04-06T12:38:55;97966.22;;;10.10;40.68
62789;BME280;66401;42.016;21.454;2023-04-06T12:41:20;97973.78;;;9.22;40.06
62789;BME280;66401;42.016;21.454;2023-04-06T12:43:46;97971.09;;;8.38;43.57
62789;BME280;66401;42.016;21.454;2023-04-06T12:46:12;97966.31;;;8.84;42.84
62789;BME280;66401;42.016;21.454;2023-04-06T12:48:38;97952.53;;;9.12;42.40
62789;BME280;66401;42.016;21.454;2023-04-06T12:51:05;97958.13;;;9.09;43.15
62789;BME280;66401;42.016;21.454;2023-04-06T12:53:31;97952.38;;;9.55;42.41
62789;BME280;66401;42.016;21.454;2023-04-06T12:55:58;97948.66;;;9.36;41.48
62789;BME280;66401;42.016;21.454;2023-04-06T12:58:24;97946.91;;;9.36;43.35
62789;BME280;66401;42.016;21.454;2023-04-06T13:00:53;97940.88;;;9.01;43.13